Terminal Aerodrome Forecast
Issued by NWS Wichita, KS

Home | Current Version | Previous Version | Graphics & Text | Print | Product List | Glossary On
Versions: 1 2 3 4 5 6 7 8 9 10 11 12 13 14 15 16 17 18 19 20 21 22
000
FTUS43 KICT 240520
TAFICT
TAF
KICT 240520Z 2406/2506 17013KT P6SM BKN200
     FM241500 20013KT P6SM BKN150
     FM242000 21013KT P6SM SCT060
     FM250100 18010KT P6SM VCTS BKN060CB=

USA.gov is the U.S. government's official web portal to all federal, state and local government web resources and services.